Informes METAR cercanos


LEVC - Manises, Valencia, ESPAÑA
Distance from station: NNE 72km
Actualización: 25/09/2017 09:30
Despejado
Despejado
 Viento del ONO
Viento: ONO 6 km/h
Temperatura: 22°C
Rocío: 12°C
Humedad: 53%
Barómetro: 1017 hPa
Resumen: Despejado
Visibility: Mas de 10 km
2017/09/25 07:30 LEVC 250730Z 30003KT CAVOK 22/12 Q1017 NOSIG
LEAL - El Altet, Alicante, ESPAÑA
Distance from station: S 70km
Actualización: 25/09/2017 09:30
Despejado
Despejado
 Viento del SO
Viento: SO 11 km/h
Temperatura: 20°C
Rocío: 18°C
Humedad: 88%
Barómetro: 1018 hPa
Resumen: Despejado
Visibility: Mas de 10 km
2017/09/25 07:30 LEAL 250730Z 22006KT CAVOK 20/18 Q1018 NOSIG
 
LELC - San Javier, Murcia, ESPAÑA
Distance from station: SSO 188km
Actualización: 25/09/2017 09:00
Despejado
Despejado
 Viento del O
Viento: O 7 km/h
Temperatura: 20°C
Rocío: 19°C
Humedad: 94%
Barómetro: 1018 hPa
Resumen: Despejado
Visibility: Mas de 10 km
2017/09/25 07:00 LELC 250700Z 27004KT CAVOK 20/19 Q1018 NOSIG
LEAB - Los Llanos, Albacete, ESPAÑA
Distance from station: O 143km
Actualización: 25/09/2017 09:00
Despejado
Despejado
 Viento del OSO
Viento: OSO 4 km/h
Temperatura: 15°C
Rocío: 7°C
Humedad: 59%
Barómetro: 1022 hPa
Resumen: Despejado
Visibility: Mas de 10 km
2017/09/25 07:00 LEAB 250700Z 25002KT CAVOK 15/07 Q1022 NOSIG